createdAt,value
2018-06-14T00:01:18.051Z,10.00
2018-06-14T00:04:16.469Z,10.00
2018-06-14T00:07:15.122Z,10.10
2018-06-14T00:10:13.805Z,10.00
2018-06-14T00:13:12.341Z,9.90
2018-06-14T00:16:10.768Z,9.80
2018-06-14T00:19:08.861Z,9.60
2018-06-14T00:22:07.450Z,9.50
2018-06-14T00:25:05.909Z,9.60
2018-06-14T00:28:04.094Z,9.50
2018-06-14T00:31:02.270Z,9.60
2018-06-14T00:34:00.516Z,9.70
2018-06-14T00:36:58.957Z,9.80
2018-06-14T00:39:57.530Z,9.80
2018-06-14T00:42:55.819Z,9.70
2018-06-14T00:45:54.093Z,9.60
2018-06-14T00:48:52.190Z,9.60
2018-06-14T00:51:50.666Z,9.50
2018-06-14T00:54:48.950Z,9.50
2018-06-14T00:57:48.476Z,9.40
2018-06-14T01:00:47.041Z,9.50
2018-06-14T01:03:45.273Z,9.50
2018-06-14T01:06:43.550Z,9.50
2018-06-14T01:09:41.808Z,9.50
2018-06-14T01:12:40.237Z,9.40
2018-06-14T01:15:38.647Z,9.40
2018-06-14T01:18:37.129Z,9.40
2018-06-14T01:21:35.744Z,9.30
2018-06-14T01:24:33.875Z,9.30
2018-06-14T01:27:32.054Z,9.20
2018-06-14T01:30:30.526Z,9.20
2018-06-14T01:33:29.166Z,9.10
2018-06-14T01:36:27.498Z,9.00
2018-06-14T01:39:25.938Z,9.00
2018-06-14T01:42:24.277Z,9.00
2018-06-14T01:45:22.456Z,9.00
2018-06-14T01:48:20.917Z,9.00
2018-06-14T01:51:19.283Z,8.90
2018-06-14T01:54:17.924Z,8.90
2018-06-14T01:57:16.201Z,8.90
2018-06-14T02:00:14.286Z,8.90
2018-06-14T02:03:12.818Z,8.90
2018-06-14T02:06:11.512Z,9.00
2018-06-14T02:09:09.835Z,9.00
2018-06-14T02:12:08.654Z,8.90
2018-06-14T02:15:06.878Z,8.80
2018-06-14T02:18:06.456Z,8.80
2018-06-14T02:21:05.194Z,8.80
2018-06-14T02:24:03.284Z,8.80
2018-06-14T02:27:01.476Z,8.80
2018-06-14T02:29:59.680Z,8.80
2018-06-14T02:32:58.006Z,8.80
2018-06-14T02:35:56.378Z,8.90
2018-06-14T02:38:55.267Z,8.90
2018-06-14T02:41:53.349Z,8.90
2018-06-14T02:44:51.855Z,8.90
2018-06-14T02:47:50.055Z,8.80
2018-06-14T02:50:47.774Z,8.80
2018-06-14T02:53:45.829Z,8.80
2018-06-14T02:56:44.043Z,8.90
2018-06-14T02:59:42.696Z,8.90
2018-06-14T03:02:41.509Z,8.90
2018-06-14T03:05:39.689Z,8.90
2018-06-14T03:08:38.104Z,8.90
2018-06-14T03:11:36.479Z,8.90
2018-06-14T03:14:34.649Z,9.20
2018-06-14T03:17:32.918Z,9.60
2018-06-14T03:20:33.574Z,9.90
2018-06-14T03:23:31.940Z,10.10
2018-06-14T03:26:30.239Z,10.20
2018-06-14T03:29:28.726Z,10.40
2018-06-14T03:32:26.683Z,10.60
2018-06-14T03:35:25.131Z,10.60
2018-06-14T03:38:23.543Z,10.80
2018-06-14T03:41:21.960Z,11.10
2018-06-14T03:44:20.174Z,11.50
2018-06-14T03:47:18.276Z,11.80
2018-06-14T03:50:16.974Z,11.80
2018-06-14T03:53:15.278Z,11.90
2018-06-14T03:56:13.403Z,11.90
2018-06-14T03:59:11.372Z,12.10
2018-06-14T04:02:09.586Z,12.80
2018-06-14T04:05:07.991Z,13.30
2018-06-14T04:08:06.356Z,13.70
2018-06-14T04:11:05.102Z,13.80
2018-06-14T04:14:03.256Z,14.40
2018-06-14T04:17:01.527Z,14.50
2018-06-14T04:19:59.914Z,14.60
2018-06-14T04:22:58.270Z,14.80
2018-06-14T04:25:56.372Z,15.00
2018-06-14T04:28:55.112Z,14.50
2018-06-14T04:31:53.319Z,14.30
2018-06-14T04:34:51.544Z,15.00
2018-06-14T04:37:49.592Z,15.40
2018-06-14T04:40:48.270Z,16.00
2018-06-14T04:43:46.561Z,16.40
2018-06-14T04:46:44.814Z,16.40
2018-06-14T04:49:42.906Z,16.60
2018-06-14T04:52:41.900Z,17.10
2018-06-14T04:55:40.155Z,17.40
2018-06-14T04:58:38.419Z,17.40
2018-06-14T05:01:36.590Z,17.70
2018-06-14T05:04:35.151Z,17.70
2018-06-14T05:07:33.490Z,18.30
2018-06-14T05:10:32.734Z,18.20
2018-06-14T05:13:30.914Z,18.00
2018-06-14T05:16:28.938Z,19.00
2018-06-14T05:19:27.382Z,18.90
2018-06-14T05:22:25.926Z,18.70
2018-06-14T05:25:24.771Z,19.40
2018-06-14T05:28:23.559Z,19.30
2018-06-14T05:31:21.538Z,19.40
2018-06-14T05:34:19.903Z,19.90
2018-06-14T05:37:17.978Z,20.00
2018-06-14T05:40:16.294Z,20.00
2018-06-14T05:43:15.734Z,18.90
2018-06-14T05:46:14.255Z,19.30
2018-06-14T05:49:13.778Z,19.00
2018-06-14T05:52:12.221Z,18.80
2018-06-14T05:55:10.536Z,19.00
2018-06-14T05:58:08.909Z,19.40
2018-06-14T06:01:07.327Z,20.60
2018-06-14T06:04:05.561Z,21.20
2018-06-14T06:07:04.082Z,20.60
2018-06-14T06:10:02.225Z,20.70
2018-06-14T06:13:00.715Z,20.20
2018-06-14T06:15:59.010Z,20.90
2018-06-14T06:18:57.079Z,22.00
2018-06-14T06:21:55.356Z,22.00
2018-06-14T06:24:53.747Z,20.70
2018-06-14T06:27:51.832Z,21.00
2018-06-14T06:30:50.175Z,21.10
2018-06-14T06:33:48.458Z,21.50
2018-06-14T06:36:47.615Z,21.20
2018-06-14T06:39:45.658Z,21.20
2018-06-14T06:42:44.067Z,22.00
2018-06-14T06:45:42.409Z,21.60
2018-06-14T06:48:40.826Z,22.20
2018-06-14T06:51:39.166Z,23.40
2018-06-14T06:54:37.957Z,23.70
2018-06-14T06:57:36.798Z,24.10
2018-06-14T07:00:34.946Z,24.80
2018-06-14T07:03:33.185Z,23.90
2018-06-14T07:06:31.352Z,23.90
2018-06-14T07:09:30.724Z,22.90
2018-06-14T07:12:29.206Z,24.00
2018-06-14T07:15:27.730Z,24.90
2018-06-14T07:18:25.911Z,26.40
2018-06-14T07:21:24.322Z,26.20
2018-06-14T07:24:22.512Z,24.60
2018-06-14T07:27:21.022Z,23.40
2018-06-14T07:30:19.383Z,23.90
2018-06-14T07:33:17.694Z,24.40
2018-06-14T07:36:15.890Z,22.70
2018-06-14T07:39:14.391Z,23.00
2018-06-14T07:42:12.441Z,23.00
2018-06-14T07:45:10.684Z,23.70
2018-06-14T07:48:11.454Z,24.30
2018-06-14T07:51:09.453Z,25.80
2018-06-14T07:54:07.764Z,26.20
2018-06-14T07:57:06.401Z,25.00
2018-06-14T08:00:04.781Z,25.60
2018-06-14T08:03:03.155Z,25.70
2018-06-14T08:06:01.550Z,26.20
2018-06-14T08:08:59.846Z,26.60
2018-06-14T08:11:58.363Z,25.40
2018-06-14T08:14:57.240Z,23.50
2018-06-14T08:17:55.799Z,23.80
2018-06-14T08:20:53.998Z,25.90
2018-06-14T08:23:52.251Z,26.30
2018-06-14T08:26:50.579Z,26.10
2018-06-14T08:29:48.857Z,26.30
2018-06-14T08:32:47.031Z,25.30
2018-06-14T08:35:45.336Z,24.00
2018-06-14T08:38:43.990Z,23.80
2018-06-14T08:41:42.269Z,25.50
2018-06-14T08:44:40.677Z,27.30
2018-06-14T08:47:39.084Z,28.10
2018-06-14T08:50:37.359Z,26.90
2018-06-14T08:53:35.714Z,25.60
2018-06-14T08:56:33.927Z,25.00
2018-06-14T09:02:23.662Z,25.70
2018-06-14T09:05:21.927Z,26.30
2018-06-14T09:08:20.208Z,27.70
2018-06-14T09:11:18.533Z,27.30
2018-06-14T09:14:17.919Z,26.10
2018-06-14T09:17:16.584Z,25.20
2018-06-14T09:20:15.162Z,25.10
2018-06-14T09:23:13.693Z,25.00
2018-06-14T09:26:11.967Z,26.10
2018-06-14T09:29:10.262Z,27.10
2018-06-14T09:32:08.840Z,26.80
2018-06-14T09:35:07.083Z,26.40
2018-06-14T09:38:05.629Z,26.10
2018-06-14T09:41:03.868Z,26.20
2018-06-14T09:44:01.914Z,25.40
2018-06-14T09:46:59.978Z,26.80
2018-06-14T09:49:58.214Z,27.90
2018-06-14T09:52:56.903Z,26.10
2018-06-14T09:55:55.385Z,26.20
2018-06-14T09:58:53.550Z,27.70
2018-06-14T10:01:51.907Z,28.60
2018-06-14T10:04:50.132Z,27.40
2018-06-14T10:07:48.476Z,27.40
2018-06-14T10:10:46.774Z,27.20
2018-06-14T10:13:45.386Z,27.40
2018-06-14T10:16:43.591Z,27.10
2018-06-14T10:19:43.180Z,26.30
2018-06-14T10:22:41.292Z,25.70
2018-06-14T10:28:29.531Z,26.60
2018-06-14T10:31:27.575Z,27.30
2018-06-14T10:34:25.962Z,27.90
2018-06-14T10:37:24.252Z,27.90
2018-06-14T10:40:22.653Z,25.90
2018-06-14T10:43:21.508Z,26.40
2018-06-14T10:46:19.395Z,26.10
2018-06-14T10:49:17.713Z,25.70
2018-06-14T10:52:16.815Z,25.70
2018-06-14T10:55:15.166Z,24.80
2018-06-14T10:58:13.705Z,25.10
2018-06-14T11:01:12.645Z,24.60
2018-06-14T11:04:10.962Z,25.30
2018-06-14T11:07:09.348Z,25.00
2018-06-14T11:10:07.393Z,24.60
2018-06-14T11:13:05.687Z,26.10
2018-06-14T11:16:03.930Z,27.50
2018-06-14T11:19:02.322Z,26.20
2018-06-14T11:22:00.674Z,24.80
2018-06-14T11:24:59.014Z,25.40
2018-06-14T11:27:57.707Z,24.60
2018-06-14T11:30:55.814Z,25.30
2018-06-14T11:33:54.147Z,25.10
2018-06-14T11:36:52.626Z,24.60
2018-06-14T11:39:51.510Z,23.70
2018-06-14T11:42:50.940Z,22.70
2018-06-14T11:45:49.094Z,22.30
2018-06-14T11:48:47.265Z,22.00
2018-06-14T11:51:45.782Z,22.20
2018-06-14T11:54:44.064Z,22.90
2018-06-14T11:57:42.588Z,23.20
2018-06-14T12:00:40.714Z,23.30
2018-06-14T12:03:39.183Z,23.50
2018-06-14T12:06:37.310Z,23.90
2018-06-14T12:09:35.597Z,23.10
2018-06-14T12:12:33.646Z,23.10
2018-06-14T12:15:32.038Z,23.50
2018-06-14T12:18:30.214Z,23.50
2018-06-14T12:21:28.656Z,22.90
2018-06-14T12:24:26.766Z,23.20
2018-06-14T12:27:25.092Z,22.70
2018-06-14T12:30:23.214Z,22.80
2018-06-14T12:33:21.843Z,22.50
2018-06-14T12:36:20.129Z,23.00
2018-06-14T12:39:18.430Z,23.60
2018-06-14T12:42:16.680Z,23.60
2018-06-14T12:45:14.974Z,23.60
2018-06-14T12:48:13.211Z,23.80
2018-06-14T12:51:11.623Z,23.70
2018-06-14T12:54:11.005Z,24.00
2018-06-14T12:57:09.641Z,24.00
2018-06-14T13:00:08.109Z,23.50
2018-06-14T13:03:06.381Z,23.30
2018-06-14T13:06:04.682Z,23.30
2018-06-14T13:09:03.282Z,23.00
2018-06-14T13:12:01.623Z,23.40
2018-06-14T13:15:00.071Z,23.70
2018-06-14T13:17:58.287Z,23.60
2018-06-14T13:20:56.999Z,23.80
2018-06-14T13:23:55.256Z,23.90
2018-06-14T13:26:53.513Z,23.70
2018-06-14T13:29:51.916Z,23.40
2018-06-14T13:32:50.079Z,23.20
2018-06-14T13:35:48.842Z,23.50
2018-06-14T13:38:48.242Z,23.50
2018-06-14T13:41:46.404Z,23.60
2018-06-14T13:44:45.100Z,23.60
2018-06-14T13:47:43.320Z,23.60
2018-06-14T13:50:41.574Z,23.50
2018-06-14T13:53:39.697Z,23.00
2018-06-14T13:56:37.918Z,23.00
2018-06-14T13:59:35.912Z,23.40
2018-06-14T14:02:34.804Z,23.60
2018-06-14T14:05:32.650Z,23.10
2018-06-14T14:08:30.918Z,23.50
2018-06-14T14:11:29.519Z,23.80
2018-06-14T14:14:28.039Z,23.90
2018-06-14T14:17:26.300Z,24.00
2018-06-14T14:20:24.371Z,24.60
2018-06-14T14:23:22.746Z,24.30
2018-06-14T14:26:20.757Z,24.40
2018-06-14T14:29:19.092Z,24.40
2018-06-14T14:32:17.249Z,24.20
2018-06-14T14:35:15.432Z,24.10
2018-06-14T14:38:14.620Z,24.20
2018-06-14T14:41:13.974Z,23.60
2018-06-14T14:44:13.357Z,23.80
2018-06-14T14:47:12.369Z,23.50
2018-06-14T14:50:10.588Z,23.50
2018-06-14T14:53:09.020Z,23.70
2018-06-14T14:56:07.644Z,23.90
2018-06-14T14:59:06.813Z,23.40
2018-06-14T15:02:05.089Z,22.90
2018-06-14T15:05:03.209Z,23.00
2018-06-14T15:08:01.300Z,23.20
2018-06-14T15:11:00.064Z,23.20
2018-06-14T15:13:58.829Z,23.30
2018-06-14T15:16:57.044Z,23.50
2018-06-14T15:19:55.427Z,23.20
2018-06-14T15:22:53.857Z,23.20
2018-06-14T15:25:52.371Z,22.60
2018-06-14T15:28:50.759Z,22.40
2018-06-14T15:31:48.853Z,22.60
2018-06-14T15:34:47.232Z,22.40
2018-06-14T15:37:45.487Z,22.30
2018-06-14T15:40:44.302Z,22.40
2018-06-14T15:43:42.695Z,22.60
2018-06-14T15:46:42.301Z,22.70
2018-06-14T15:49:40.750Z,22.80
2018-06-14T15:52:39.176Z,22.70
2018-06-14T15:56:51.730Z,22.80
2018-06-14T15:59:50.296Z,22.50
2018-06-14T16:02:48.286Z,22.40
2018-06-14T16:05:46.595Z,22.30
2018-06-14T16:08:45.020Z,22.30
2018-06-14T16:11:43.630Z,22.30
2018-06-14T16:14:41.847Z,22.20
2018-06-14T16:17:40.035Z,22.00
2018-06-14T16:20:39.133Z,21.70
2018-06-14T16:23:37.349Z,21.40
2018-06-14T16:26:35.563Z,21.20
2018-06-14T16:29:34.322Z,20.90
2018-06-14T16:32:32.700Z,20.60
2018-06-14T16:35:31.471Z,20.40
2018-06-14T16:38:29.877Z,20.20
2018-06-14T16:41:27.930Z,20.00
2018-06-14T16:44:26.017Z,19.70
2018-06-14T16:47:24.233Z,19.30
2018-06-14T16:50:22.458Z,19.00
2018-06-14T16:53:20.882Z,18.80
2018-06-14T16:56:18.956Z,18.60
2018-06-14T16:59:17.722Z,18.30
2018-06-14T17:02:15.832Z,18.00
2018-06-14T17:05:14.010Z,17.80
2018-06-14T17:08:12.486Z,17.60
2018-06-14T17:11:11.894Z,17.40
2018-06-14T17:14:10.291Z,17.30
2018-06-14T17:17:08.617Z,17.30
2018-06-14T17:20:07.444Z,17.30
2018-06-14T17:23:06.351Z,17.30
2018-06-14T17:26:04.746Z,17.20
2018-06-14T17:29:03.282Z,17.20
2018-06-14T17:32:01.600Z,17.10
2018-06-14T17:35:00.795Z,17.10
2018-06-14T17:37:59.192Z,17.10
2018-06-14T17:40:57.616Z,17.00
2018-06-14T17:43:55.965Z,17.10
2018-06-14T17:46:54.676Z,17.10
2018-06-14T17:49:53.276Z,17.10
2018-06-14T17:52:51.699Z,17.10
2018-06-14T17:55:49.970Z,17.10
2018-06-14T17:58:48.170Z,17.00
2018-06-14T18:01:48.156Z,17.00
2018-06-14T18:04:46.283Z,17.00
2018-06-14T18:07:44.707Z,16.90
2018-06-14T18:10:44.480Z,16.90
2018-06-14T18:13:42.726Z,16.80
2018-06-14T18:16:42.266Z,16.90
2018-06-14T18:19:40.728Z,16.80
2018-06-14T18:22:38.982Z,16.80
2018-06-14T18:25:37.230Z,16.80
2018-06-14T18:28:35.423Z,16.80
2018-06-14T18:31:33.852Z,16.80
2018-06-14T18:34:32.246Z,16.70
2018-06-14T18:37:30.465Z,16.60
2018-06-14T18:40:28.947Z,16.60
2018-06-14T18:43:26.998Z,16.50
2018-06-14T18:46:24.991Z,16.50
2018-06-14T18:49:23.561Z,16.50
2018-06-14T18:52:21.807Z,16.40
2018-06-14T18:55:20.274Z,16.50
2018-06-14T18:58:18.887Z,16.50
2018-06-14T19:01:17.174Z,16.50
2018-06-14T19:04:15.983Z,16.50
2018-06-14T19:07:14.263Z,16.50
2018-06-14T19:10:12.969Z,16.40
2018-06-14T19:13:11.323Z,16.50
2018-06-14T19:16:09.486Z,16.40
2018-06-14T19:19:08.312Z,16.40
2018-06-14T19:22:06.668Z,16.40
2018-06-14T19:25:04.867Z,16.40
2018-06-14T19:28:03.283Z,16.40
2018-06-14T19:31:01.458Z,16.30
2018-06-14T19:33:59.994Z,16.30
2018-06-14T19:36:58.211Z,16.30
2018-06-14T19:39:56.631Z,16.30
2018-06-14T19:42:54.628Z,16.30
2018-06-14T19:45:53.514Z,16.30
2018-06-14T19:48:51.663Z,16.30
2018-06-14T19:51:50.071Z,16.30
2018-06-14T19:54:49.035Z,16.30
2018-06-14T19:57:47.775Z,16.20
2018-06-14T20:00:46.067Z,16.20
2018-06-14T20:03:44.281Z,16.20
2018-06-14T20:06:42.933Z,16.10
2018-06-14T20:09:41.303Z,16.10
2018-06-14T20:12:39.802Z,16.00
2018-06-14T20:15:39.302Z,15.90
2018-06-14T20:18:37.433Z,16.00
2018-06-14T20:21:35.561Z,15.90
2018-06-14T20:24:33.614Z,15.80
2018-06-14T20:27:31.829Z,15.80
2018-06-14T20:30:29.998Z,15.80
2018-06-14T20:33:28.193Z,15.80
2018-06-14T20:36:26.416Z,15.90
2018-06-14T20:39:24.532Z,15.90
2018-06-14T20:42:22.751Z,15.90
2018-06-14T20:45:21.330Z,15.90
2018-06-14T20:48:19.418Z,15.80
2018-06-14T20:51:17.765Z,15.80
2018-06-14T20:54:16.499Z,15.80
2018-06-14T20:57:14.862Z,15.80
2018-06-14T21:00:12.966Z,15.80
2018-06-14T21:03:11.840Z,15.80
2018-06-14T21:06:10.109Z,15.70
2018-06-14T21:09:08.211Z,15.70
2018-06-14T21:12:07.777Z,15.70
2018-06-14T21:15:06.467Z,15.70
2018-06-14T21:18:04.626Z,15.70
2018-06-14T21:21:03.087Z,15.70
2018-06-14T21:24:01.421Z,15.60
2018-06-14T21:27:00.185Z,15.60
2018-06-14T21:29:58.503Z,15.60
2018-06-14T21:32:56.614Z,15.60
2018-06-14T21:35:54.850Z,15.70
2018-06-14T21:38:53.366Z,15.60
2018-06-14T21:41:51.540Z,15.70
2018-06-14T21:44:50.045Z,15.60
2018-06-14T21:47:48.273Z,15.70
2018-06-14T21:50:46.382Z,15.70
2018-06-14T21:53:44.427Z,15.70
2018-06-14T21:56:42.482Z,15.80
2018-06-14T21:59:40.807Z,15.80
2018-06-14T22:02:39.249Z,15.70
2018-06-14T22:05:38.282Z,15.80
2018-06-14T22:08:36.472Z,15.80
2018-06-14T22:11:35.063Z,15.80
2018-06-14T22:14:33.438Z,15.80
2018-06-14T22:17:31.674Z,15.80
2018-06-14T22:20:29.807Z,15.80
2018-06-14T22:23:28.593Z,15.80
2018-06-14T22:26:26.542Z,15.80
2018-06-14T22:29:24.871Z,15.80
2018-06-14T22:32:23.143Z,15.80
2018-06-14T22:35:36.413Z,15.80
2018-06-14T22:38:34.626Z,15.80
2018-06-14T22:41:32.869Z,15.70
2018-06-14T22:44:31.109Z,15.80
2018-06-14T22:47:29.717Z,15.70
2018-06-14T22:50:27.837Z,15.80
2018-06-14T22:53:26.170Z,15.80
2018-06-14T22:56:24.862Z,15.80
2018-06-14T22:59:23.292Z,15.80
2018-06-14T23:02:21.635Z,15.80
2018-06-14T23:05:19.918Z,15.80
2018-06-14T23:08:18.049Z,15.70
2018-06-14T23:11:28.048Z,15.70
2018-06-14T23:14:26.125Z,15.70
2018-06-14T23:17:32.535Z,15.60
2018-06-14T23:20:31.729Z,15.70
2018-06-14T23:23:30.389Z,15.70
2018-06-14T23:26:28.430Z,15.70
2018-06-14T23:29:26.722Z,15.70
2018-06-14T23:32:25.162Z,15.70
2018-06-14T23:35:24.782Z,15.70
2018-06-14T23:38:22.998Z,15.70
2018-06-14T23:41:21.062Z,15.80
2018-06-14T23:44:19.420Z,15.80
2018-06-14T23:47:17.663Z,15.80
2018-06-14T23:50:16.126Z,15.80
2018-06-14T23:53:14.279Z,15.80
2018-06-14T23:56:12.571Z,15.80
2018-06-14T23:59:11.061Z,15.80
